CheckWX is a tool to help pilots better visualize weather data.  It is not intended as a substitute for an official pre-flight weather briefing.

14:27:18 UTC

KHCR METAR
Heber City Municipal - Russ McDonald Field Airport
Heber, Utah, USA
Current

52 mins ago

KHCR 161335Z AUTO 00000KT 10SM CLR 12/06 A3010 RMK AO2
Observed
Jul-16 @ 13:35 UTC
Visibility
10 SM
Flight Rules
VFR
Cloud Levels
  • Clear skies
Temperature
12°C / 54°F
Dewpoint
C / 43°F
Humidity
67%
Altimeter
30.1" Hg
Pressure
1019.32 hPa
Previous

1 hour ago

KHCR 161315Z AUTO 00000KT 10SM CLR 11/06 A3009 RMK AO2
Observed
Jul-16 @ 13:15 UTC
Visibility
10 SM
Flight Rules
VFR
Cloud Levels
  • Clear skies
Temperature
11°C / 52°F
Dewpoint
C / 43°F
Humidity
72%
Altimeter
30.09" Hg
Pressure
1018.92 hPa
Previous

2 hours ago

KHCR 161255Z AUTO 13003KT 10SM CLR 08/04 A3009 RMK AO2
Observed
Jul-16 @ 12:55 UTC
Wind
  • 130° at 3 KTS
Visibility
10 SM
Flight Rules
VFR
Cloud Levels
  • Clear skies
Temperature
C / 46°F
Dewpoint
C / 39°F
Humidity
76%
Altimeter
30.09" Hg
Pressure
1018.92 hPa